createdAt,value
2023-05-15T00:02:10.515Z,99290.25
2023-05-15T00:04:41.955Z,99297.94
2023-05-15T00:07:08.892Z,99295.38
2023-05-15T00:09:38.082Z,99292.78
2023-05-15T00:12:04.967Z,99283.41
2023-05-15T00:14:33.728Z,99286.84
2023-05-15T00:17:00.330Z,99285.09
2023-05-15T00:19:29.226Z,99292.88
2023-05-15T00:21:58.067Z,99296.25
2023-05-15T00:24:24.672Z,99313.47
2023-05-15T00:26:51.254Z,99318.63
2023-05-15T00:29:17.875Z,99320.28
2023-05-15T00:31:44.542Z,99323.66
2023-05-15T00:34:13.651Z,99312.47
2023-05-15T00:36:42.937Z,99309.00
2023-05-15T00:39:09.623Z,99303.91
2023-05-15T00:41:37.219Z,99309.06
2023-05-15T00:44:04.133Z,99299.66
2023-05-15T00:46:35.420Z,99289.34
2023-05-15T00:49:05.328Z,99296.16
2023-05-15T00:51:34.988Z,99294.41
2023-05-15T00:54:02.709Z,99289.19
2023-05-15T00:56:30.729Z,99291.72
2023-05-15T00:58:59.812Z,99286.56
2023-05-15T01:01:33.466Z,99288.38
2023-05-15T01:04:02.279Z,99286.59
2023-05-15T01:06:32.669Z,99276.25
2023-05-15T01:09:06.949Z,99268.63
2023-05-15T01:11:41.276Z,99266.91
2023-05-15T01:14:08.826Z,99264.34
2023-05-15T01:16:36.141Z,99260.91
2023-05-15T01:19:06.663Z,99265.16
2023-05-15T01:21:38.325Z,99264.31
2023-05-15T01:24:26.219Z,99260.06
2023-05-15T01:27:07.888Z,99243.78
2023-05-15T01:29:56.226Z,99252.34
2023-05-15T01:32:38.143Z,99254.97
2023-05-15T01:35:36.080Z,99255.91
2023-05-15T01:38:19.159Z,99256.66
2023-05-15T01:40:49.442Z,99250.72
2023-05-15T01:43:26.844Z,99241.25
2023-05-15T01:45:54.735Z,99224.91
2023-05-15T01:48:22.868Z,99221.41
2023-05-15T01:50:51.883Z,99218.97
2023-05-15T01:53:20.184Z,99218.06
2023-05-15T01:55:48.870Z,99222.38
2023-05-15T01:58:18.950Z,99224.97
2023-05-15T02:00:48.804Z,99228.34
2023-05-15T02:03:16.419Z,99227.38
2023-05-15T02:05:43.368Z,99237.69
2023-05-15T02:08:15.536Z,99244.47
2023-05-15T02:10:43.136Z,99247.94
2023-05-15T02:13:12.447Z,99247.88
2023-05-15T02:15:39.301Z,99250.44
2023-05-15T02:18:06.548Z,99250.47
2023-05-15T02:20:35.804Z,99259.91
2023-05-15T02:23:02.501Z,99272.78
2023-05-15T02:25:40.754Z,99285.66
2023-05-15T02:28:37.256Z,99289.09
2023-05-15T02:31:18.873Z,99287.41
2023-05-15T02:34:05.848Z,99289.13
2023-05-15T02:36:37.046Z,99284.91
2023-05-15T02:39:05.908Z,99283.13
2023-05-15T02:41:40.071Z,99281.34
2023-05-15T02:44:08.736Z,99275.44
2023-05-15T02:46:37.398Z,99270.22
2023-05-15T02:49:04.294Z,99271.91
2023-05-15T02:51:33.254Z,99259.94
2023-05-15T02:54:01.421Z,99268.50
2023-05-15T02:56:30.552Z,99269.38
2023-05-15T02:58:57.228Z,99261.66
2023-05-15T03:01:23.846Z,99251.31
2023-05-15T03:03:50.525Z,99241.78
2023-05-15T03:06:19.421Z,99251.16
2023-05-15T03:08:46.081Z,99244.25
2023-05-15T03:11:12.747Z,99248.56
2023-05-15T03:13:39.298Z,99247.81
2023-05-15T03:16:06.271Z,99241.00
2023-05-15T03:18:35.602Z,99232.38
2023-05-15T03:21:02.233Z,99218.78
2023-05-15T03:23:31.531Z,99221.22
2023-05-15T03:26:00.547Z,99218.50
2023-05-15T03:28:29.437Z,99215.84
2023-05-15T03:30:58.469Z,99200.38
2023-05-15T03:33:27.440Z,99193.47
2023-05-15T03:35:56.308Z,99192.84
2023-05-15T03:38:27.936Z,99198.78
2023-05-15T03:40:56.734Z,99193.50
2023-05-15T03:43:26.752Z,99195.28
2023-05-15T03:45:55.922Z,99186.63
2023-05-15T03:48:25.665Z,99184.00
2023-05-15T03:50:57.163Z,99194.25
2023-05-15T03:53:28.500Z,99203.63
2023-05-15T03:55:57.899Z,99193.44
2023-05-15T03:58:26.873Z,99192.59
2023-05-15T04:00:55.942Z,99189.09
2023-05-15T04:03:24.945Z,99184.09
2023-05-15T04:05:52.161Z,99184.88
2023-05-15T04:08:18.771Z,99175.78
2023-05-15T04:10:50.307Z,99174.19
2023-05-15T04:13:16.899Z,99168.91
2023-05-15T04:15:46.656Z,99167.97
2023-05-15T04:18:16.300Z,99157.50
2023-05-15T04:20:43.001Z,99167.75
2023-05-15T04:23:09.970Z,99163.34
2023-05-15T04:25:43.186Z,99170.19
2023-05-15T04:28:09.774Z,99162.38
2023-05-15T04:30:36.646Z,99159.78
2023-05-15T04:33:06.117Z,99170.94
2023-05-15T04:35:33.002Z,99185.56
2023-05-15T04:37:59.717Z,99199.34
2023-05-15T04:40:26.398Z,99183.84
2023-05-15T04:42:55.265Z,99195.88
2023-05-15T04:45:24.598Z,99195.88
2023-05-15T04:47:53.873Z,99204.44
2023-05-15T04:50:23.223Z,99199.31
2023-05-15T04:52:52.457Z,99198.41
2023-05-15T04:55:19.061Z,99219.88
2023-05-15T04:57:49.571Z,99238.00
2023-05-15T05:00:16.586Z,99245.84
2023-05-15T05:02:44.317Z,99237.22
2023-05-15T05:05:16.994Z,99236.38
2023-05-15T05:07:46.173Z,99244.97
2023-05-15T05:10:15.487Z,99233.69
2023-05-15T05:12:42.090Z,99237.19
2023-05-15T05:15:09.611Z,99247.38
2023-05-15T05:17:44.135Z,99249.13
2023-05-15T05:20:13.540Z,99249.25
2023-05-15T05:22:41.241Z,99257.91
2023-05-15T05:25:08.254Z,99253.72
2023-05-15T05:27:34.926Z,99252.84
2023-05-15T05:30:04.227Z,99241.59
2023-05-15T05:32:31.002Z,99239.09
2023-05-15T05:34:59.936Z,99237.34
2023-05-15T05:37:28.766Z,99232.34
2023-05-15T05:39:55.739Z,99225.50
2023-05-15T05:42:22.366Z,99227.22
2023-05-15T05:44:48.967Z,99231.31
2023-05-15T05:47:16.132Z,99237.28
2023-05-15T05:49:48.241Z,99240.63
2023-05-15T05:52:17.441Z,99252.50
2023-05-15T05:54:46.535Z,99249.06
2023-05-15T05:57:15.634Z,99257.81
2023-05-15T05:59:45.972Z,99272.31
2023-05-15T06:02:15.434Z,99264.75
2023-05-15T06:04:44.439Z,99245.78
2023-05-15T06:07:10.969Z,99242.19
2023-05-15T06:09:39.994Z,99249.75
2023-05-15T06:12:08.355Z,99259.09
2023-05-15T06:14:36.151Z,99261.75
2023-05-15T06:17:05.304Z,99272.97
2023-05-15T06:19:32.610Z,99264.28
2023-05-15T06:21:59.230Z,99271.97
2023-05-15T06:24:27.990Z,99270.09
2023-05-15T06:26:56.998Z,99280.63
2023-05-15T06:29:25.946Z,99277.25
2023-05-15T06:31:57.876Z,99281.22
2023-05-15T06:34:24.615Z,99271.59
2023-05-15T06:36:51.206Z,99276.78
2023-05-15T06:39:20.211Z,99278.38
2023-05-15T06:41:46.791Z,99263.66
2023-05-15T06:44:13.370Z,99237.59
2023-05-15T06:46:39.970Z,99245.16
2023-05-15T06:49:09.060Z,99239.09
2023-05-15T06:51:40.058Z,99239.06
2023-05-15T06:54:06.881Z,99244.13
2023-05-15T06:56:33.507Z,99242.28
2023-05-15T06:59:00.131Z,99235.59
2023-05-15T07:01:32.477Z,99241.63
2023-05-15T07:03:59.189Z,99243.28
2023-05-15T07:06:32.065Z,99244.91
2023-05-15T07:09:01.913Z,99257.69
2023-05-15T07:11:29.401Z,99258.44
2023-05-15T07:13:58.400Z,99258.41
2023-05-15T07:16:25.091Z,99264.66
2023-05-15T07:18:54.046Z,99266.13
2023-05-15T07:21:20.605Z,99281.59
2023-05-15T07:23:49.539Z,99286.88
2023-05-15T07:26:23.776Z,99286.94
2023-05-15T07:29:00.485Z,99293.03
2023-05-15T07:31:26.970Z,99298.94
2023-05-15T07:33:53.606Z,99292.44
2023-05-15T07:36:20.277Z,99273.50
2023-05-15T07:38:46.974Z,99278.41
2023-05-15T07:41:16.381Z,99258.28
2023-05-15T07:43:42.975Z,99264.06
2023-05-15T07:46:11.988Z,99262.50
2023-05-15T07:48:38.861Z,99262.50
2023-05-15T07:51:08.164Z,99260.50
2023-05-15T07:53:37.230Z,99255.03
2023-05-15T07:56:04.068Z,99258.50
2023-05-15T07:58:30.677Z,99258.63
2023-05-15T08:00:59.724Z,99273.84
2023-05-15T08:03:26.509Z,99285.03
2023-05-15T08:05:53.197Z,99293.75
2023-05-15T08:08:19.780Z,99292.25
2023-05-15T08:10:48.886Z,99288.59
2023-05-15T08:13:17.761Z,99283.31
2023-05-15T08:15:44.467Z,99286.31
2023-05-15T08:18:13.316Z,99278.50
2023-05-15T08:20:39.942Z,99280.94
2023-05-15T08:23:08.819Z,99283.44
2023-05-15T08:25:35.501Z,99289.41
2023-05-15T08:28:05.200Z,99295.47
2023-05-15T08:30:34.305Z,99286.06
2023-05-15T08:33:03.460Z,99299.00
2023-05-15T08:35:34.970Z,99287.25
2023-05-15T08:38:01.764Z,99283.44
2023-05-15T08:44:20.445Z,99286.28
2023-05-15T08:46:49.991Z,99273.56
2023-05-15T08:49:27.484Z,99273.63
2023-05-15T08:51:55.631Z,99276.06
2023-05-15T08:54:23.028Z,99273.75
2023-05-15T08:56:49.901Z,99267.56
2023-05-15T08:59:24.901Z,99275.19
2023-05-15T09:01:54.376Z,99259.72
2023-05-15T09:04:24.007Z,99274.47
2023-05-15T09:06:51.611Z,99275.03
2023-05-15T09:09:20.656Z,99284.91
2023-05-15T09:11:51.860Z,99293.84
2023-05-15T09:14:18.981Z,99298.53
2023-05-15T09:16:49.544Z,99291.28
2023-05-15T09:19:20.303Z,99293.75
2023-05-15T09:21:49.799Z,99301.06
2023-05-15T09:24:24.973Z,99307.66
2023-05-15T09:27:07.377Z,99304.91
2023-05-15T09:29:38.093Z,99318.06
2023-05-15T09:32:06.442Z,99322.03
2023-05-15T09:34:40.519Z,99323.53
2023-05-15T09:37:09.696Z,99330.31
2023-05-15T09:39:46.386Z,99326.78
2023-05-15T09:42:14.830Z,99326.13
2023-05-15T09:44:46.054Z,99329.19
2023-05-15T09:47:14.321Z,99327.78
2023-05-15T09:49:44.333Z,99329.91
2023-05-15T09:52:11.111Z,99321.56
2023-05-15T09:54:37.921Z,99322.84
2023-05-15T09:57:14.274Z,99329.72
2023-05-15T09:59:52.557Z,99325.44
2023-05-15T10:02:36.375Z,99322.25
2023-05-15T10:05:03.055Z,99327.16
2023-05-15T10:07:36.167Z,99323.06
2023-05-15T10:10:04.520Z,99320.56
2023-05-15T10:12:40.108Z,99324.38
2023-05-15T10:15:09.558Z,99327.88
2023-05-15T10:17:39.895Z,99331.56
2023-05-15T10:20:11.383Z,99322.06
2023-05-15T10:22:46.161Z,99332.00
2023-05-15T10:25:30.735Z,99323.06
2023-05-15T10:27:58.464Z,99327.13
2023-05-15T10:30:26.632Z,99322.16
2023-05-15T10:32:54.056Z,99313.31
2023-05-15T10:35:27.498Z,99326.84
2023-05-15T10:37:54.711Z,99323.13
2023-05-15T10:40:23.372Z,99324.88
2023-05-15T10:42:50.473Z,99329.91
2023-05-15T10:45:17.284Z,99329.72
2023-05-15T10:47:45.522Z,99333.66
2023-05-15T10:50:15.248Z,99330.06
2023-05-15T10:52:42.191Z,99332.03
2023-05-15T10:55:20.987Z,99335.94
2023-05-15T10:57:47.826Z,99327.50
2023-05-15T11:00:26.159Z,99323.25
2023-05-15T11:02:55.381Z,99320.50
2023-05-15T11:05:27.071Z,99317.88
2023-05-15T11:08:28.645Z,99322.78
2023-05-15T11:10:55.474Z,99328.69
2023-05-15T11:13:22.074Z,99320.94
2023-05-15T11:15:51.055Z,99323.06
2023-05-15T11:18:17.889Z,99314.41
2023-05-15T11:20:51.935Z,99312.09
2023-05-15T11:23:27.606Z,99314.03
2023-05-15T11:25:57.036Z,99310.41
2023-05-15T11:28:25.900Z,99312.66
2023-05-15T11:30:53.036Z,99309.16
2023-05-15T11:33:24.442Z,99313.63
2023-05-15T11:35:59.262Z,99319.88
2023-05-15T11:38:28.878Z,99302.56
2023-05-15T11:40:58.603Z,99295.09
2023-05-15T11:43:48.689Z,99313.63
2023-05-15T11:46:15.537Z,99310.72
2023-05-15T11:48:44.405Z,99302.00
2023-05-15T11:51:31.757Z,99307.94
2023-05-15T11:53:58.982Z,99304.00
2023-05-15T11:56:29.995Z,99302.91
2023-05-15T11:59:01.323Z,99305.81
2023-05-15T12:01:41.730Z,99309.56
2023-05-15T12:04:15.655Z,99311.53
2023-05-15T12:06:49.555Z,99303.94
2023-05-15T12:09:19.480Z,99298.56
2023-05-15T12:11:51.992Z,99301.63
2023-05-15T12:14:28.975Z,99306.38
2023-05-15T12:17:04.021Z,99309.81
2023-05-15T12:19:31.135Z,99308.47
2023-05-15T12:21:57.730Z,99315.63
2023-05-15T12:24:26.733Z,99318.19
2023-05-15T12:26:55.950Z,99307.94
2023-05-15T12:29:29.360Z,99313.13
2023-05-15T12:31:56.141Z,99327.31
2023-05-15T12:34:22.882Z,99327.91
2023-05-15T12:36:49.427Z,99322.16
2023-05-15T12:39:18.253Z,99324.78
2023-05-15T12:41:46.716Z,99327.50
2023-05-15T12:44:22.239Z,99319.34
2023-05-15T12:46:48.768Z,99321.44
2023-05-15T12:49:21.493Z,99331.38
2023-05-15T12:51:48.074Z,99325.94
2023-05-15T12:54:20.975Z,99305.38
2023-05-15T12:56:52.934Z,99299.75
2023-05-15T12:59:19.637Z,99308.72
2023-05-15T13:01:48.669Z,99302.06
2023-05-15T13:04:18.459Z,99302.66
2023-05-15T13:06:47.772Z,99295.47
2023-05-15T13:09:14.846Z,99297.84
2023-05-15T13:11:45.198Z,99302.72
2023-05-15T13:14:17.190Z,99305.66
2023-05-15T13:16:48.246Z,99300.97
2023-05-15T13:19:15.928Z,99289.22
2023-05-15T13:21:43.323Z,99278.09
2023-05-15T13:24:12.469Z,99292.00
2023-05-15T13:26:41.633Z,99281.47
2023-05-15T13:29:10.962Z,99290.38
2023-05-15T13:31:39.826Z,99281.81
2023-05-15T13:34:06.521Z,99284.88
2023-05-15T13:36:33.120Z,99289.78
2023-05-15T13:38:59.649Z,99284.34
2023-05-15T13:41:28.579Z,99279.84
2023-05-15T13:43:59.948Z,99278.50
2023-05-15T13:46:26.543Z,99279.84
2023-05-15T13:48:55.543Z,99282.66
2023-05-15T13:51:22.139Z,99276.31
2023-05-15T13:53:48.706Z,99277.31
2023-05-15T13:56:15.318Z,99281.97
2023-05-15T13:58:42.550Z,99282.16
2023-05-15T14:01:12.105Z,99278.31
2023-05-15T14:03:38.879Z,99282.13
2023-05-15T14:06:08.505Z,99283.56
2023-05-15T14:08:35.057Z,99289.19
2023-05-15T14:11:01.798Z,99288.56
2023-05-15T14:13:31.702Z,99289.00
2023-05-15T14:16:03.224Z,99298.19
2023-05-15T14:18:32.296Z,99303.06
2023-05-15T14:21:01.176Z,99302.38
2023-05-15T14:23:30.803Z,99289.41
2023-05-15T14:25:57.370Z,99289.75
2023-05-15T14:28:23.930Z,99292.25
2023-05-15T14:30:50.503Z,99294.59
2023-05-15T14:33:20.040Z,99300.09
2023-05-15T14:35:51.406Z,99295.97
2023-05-15T14:38:18.010Z,99300.75
2023-05-15T14:40:46.669Z,99297.69
2023-05-15T14:43:13.210Z,99303.75
2023-05-15T14:45:39.886Z,99300.56
2023-05-15T14:48:09.628Z,99308.69
2023-05-15T14:50:36.203Z,99315.91
2023-05-15T14:53:02.806Z,99313.59
2023-05-15T14:55:29.403Z,99317.94
2023-05-15T14:57:58.129Z,99318.16
2023-05-15T15:00:24.842Z,99329.28
2023-05-15T15:02:54.666Z,99325.88
2023-05-15T15:05:21.781Z,99323.66
2023-05-15T15:08:04.914Z,99325.09
2023-05-15T15:10:39.033Z,99331.69
2023-05-15T15:13:10.151Z,99332.22
2023-05-15T15:15:40.137Z,99328.06
2023-05-15T15:18:07.813Z,99332.22
2023-05-15T15:20:34.712Z,99336.34
2023-05-15T15:23:04.921Z,99338.16
2023-05-15T15:25:35.590Z,99349.22
2023-05-15T15:28:02.858Z,99355.81
2023-05-15T15:30:29.604Z,99345.44
2023-05-15T15:32:59.147Z,99347.25
2023-05-15T15:35:25.840Z,99340.28
2023-05-15T15:37:53.170Z,99347.25
2023-05-15T15:40:23.965Z,99351.38
2023-05-15T15:42:50.931Z,99348.31
2023-05-15T15:45:19.791Z,99353.28
2023-05-15T15:47:46.273Z,99353.97
2023-05-15T15:50:15.942Z,99363.00
2023-05-15T15:52:44.920Z,99359.44
2023-05-15T15:55:13.969Z,99359.13
2023-05-15T15:57:42.758Z,99357.47
2023-05-15T16:00:10.343Z,99359.16
2023-05-15T16:02:37.047Z,99352.72
2023-05-15T16:05:07.230Z,99355.13
2023-05-15T16:07:36.514Z,99345.47
2023-05-15T16:10:12.348Z,99347.81
2023-05-15T16:12:57.511Z,99347.81
2023-05-15T16:15:26.663Z,99349.69
2023-05-15T16:17:54.329Z,99343.72
2023-05-15T16:20:21.977Z,99342.78
2023-05-15T16:22:48.594Z,99347.13
2023-05-15T16:25:15.274Z,99346.94
2023-05-15T16:27:41.854Z,99354.66
2023-05-15T16:30:09.999Z,99358.25
2023-05-15T16:32:41.996Z,99369.56
2023-05-15T16:35:13.593Z,99370.06
2023-05-15T16:37:50.406Z,99380.31
2023-05-15T16:40:27.384Z,99374.78
2023-05-15T16:42:54.155Z,99378.91
2023-05-15T16:45:20.776Z,99382.53
2023-05-15T16:47:49.656Z,99386.84
2023-05-15T16:50:16.198Z,99385.13
2023-05-15T16:52:45.964Z,99382.09
2023-05-15T16:55:17.588Z,99378.06
2023-05-15T16:57:47.396Z,99379.19
2023-05-15T17:00:17.375Z,99383.94
2023-05-15T17:02:56.322Z,99372.84
2023-05-15T17:05:23.016Z,99369.34
2023-05-15T17:07:49.592Z,99371.59
2023-05-15T17:10:29.815Z,99377.34
2023-05-15T17:12:56.639Z,99373.19
2023-05-15T17:15:23.650Z,99385.97
2023-05-15T17:17:50.424Z,99394.81
2023-05-15T17:20:17.138Z,99402.91
2023-05-15T17:22:43.811Z,99408.78
2023-05-15T17:25:11.257Z,99408.78
2023-05-15T17:27:42.747Z,99413.06
2023-05-15T17:30:12.152Z,99417.31
2023-05-15T17:32:39.464Z,99417.47
2023-05-15T17:35:08.762Z,99423.00
2023-05-15T17:37:35.332Z,99423.31
2023-05-15T17:40:08.149Z,99421.63
2023-05-15T17:42:37.141Z,99426.66
2023-05-15T17:45:04.406Z,99422.72
2023-05-15T17:47:38.766Z,99427.91
2023-05-15T17:50:10.707Z,99422.72
2023-05-15T17:52:43.984Z,99423.53
2023-05-15T17:55:18.229Z,99421.97
2023-05-15T18:01:45.171Z,99423.16
2023-05-15T18:04:11.826Z,99423.25
2023-05-15T18:06:40.938Z,99413.03
2023-05-15T18:09:07.840Z,99414.13
2023-05-15T18:11:34.497Z,99419.91
2023-05-15T18:14:01.117Z,99423.56
2023-05-15T18:16:32.935Z,99419.47
2023-05-15T18:19:00.255Z,99415.97
2023-05-15T18:21:29.374Z,99427.53
2023-05-15T18:23:56.091Z,99418.81
2023-05-15T18:26:25.878Z,99432.63
2023-05-15T18:28:52.890Z,99440.38
2023-05-15T18:31:19.603Z,99439.97
2023-05-15T18:33:46.827Z,99443.34
2023-05-15T18:36:16.046Z,99442.28
2023-05-15T18:38:42.766Z,99447.56
2023-05-15T18:41:09.353Z,99453.63
2023-05-15T18:43:38.406Z,99462.41
2023-05-15T18:46:05.758Z,99460.88
2023-05-15T18:48:34.696Z,99462.59
2023-05-15T18:51:03.279Z,99470.91
2023-05-15T18:53:29.862Z,99474.13
2023-05-15T18:55:56.385Z,99475.69
2023-05-15T18:58:25.193Z,99471.34
2023-05-15T19:00:51.807Z,99479.28
2023-05-15T19:03:21.175Z,99471.72
2023-05-15T19:05:50.188Z,99488.38
2023-05-15T19:08:16.631Z,99479.75
2023-05-15T19:10:50.777Z,99486.78
2023-05-15T19:13:20.224Z,99483.34
2023-05-15T19:15:54.252Z,99477.31
2023-05-15T19:18:21.840Z,99489.44
2023-05-15T19:20:52.044Z,99486.91
2023-05-15T19:23:20.568Z,99486.81
2023-05-15T19:25:47.259Z,99490.28
2023-05-15T19:28:14.933Z,99502.38
2023-05-15T19:30:44.514Z,99499.09
2023-05-15T19:33:14.067Z,99502.59
2023-05-15T19:35:43.199Z,99500.22
2023-05-15T19:38:14.223Z,99502.78
2023-05-15T19:40:45.789Z,99504.53
2023-05-15T19:43:14.246Z,99500.94
2023-05-15T19:45:41.949Z,99495.84
2023-05-15T19:48:09.452Z,99492.56
2023-05-15T19:50:41.665Z,99489.13
2023-05-15T19:53:08.495Z,99490.97
2023-05-15T19:55:37.515Z,99499.50
2023-05-15T19:58:04.202Z,99502.94
2023-05-15T20:00:31.489Z,99489.09
2023-05-15T20:03:03.145Z,99483.25
2023-05-15T20:05:32.261Z,99497.84
2023-05-15T20:08:03.571Z,99484.13
2023-05-15T20:10:35.247Z,99490.09
2023-05-15T20:13:01.991Z,99485.91
2023-05-15T20:15:35.089Z,99489.47
2023-05-15T20:18:01.951Z,99497.91
2023-05-15T20:20:29.306Z,99502.34
2023-05-15T20:22:58.573Z,99501.47
2023-05-15T20:25:29.179Z,99514.31
2023-05-15T20:27:58.608Z,99513.19
2023-05-15T20:30:25.494Z,99518.16
2023-05-15T20:32:55.029Z,99516.34
2023-05-15T20:35:23.989Z,99526.75
2023-05-15T20:37:53.631Z,99520.03
2023-05-15T20:40:23.644Z,99531.25
2023-05-15T20:42:50.942Z,99531.25
2023-05-15T20:45:20.269Z,99528.63
2023-05-15T20:47:54.310Z,99536.47
2023-05-15T20:50:20.955Z,99524.50
2023-05-15T20:52:49.891Z,99525.38
2023-05-15T20:55:17.227Z,99520.28
2023-05-15T20:57:48.185Z,99520.19
2023-05-15T21:00:16.948Z,99511.63
2023-05-15T21:02:45.301Z,99515.94
2023-05-15T21:05:12.223Z,99513.28
2023-05-15T21:07:41.573Z,99517.59
2023-05-15T21:10:08.978Z,99521.91
2023-05-15T21:12:35.737Z,99521.91
2023-05-15T21:15:06.242Z,99528.00
2023-05-15T21:17:33.005Z,99539.19
2023-05-15T21:20:01.160Z,99524.50
2023-05-15T21:22:30.009Z,99523.59
2023-05-15T21:24:56.617Z,99523.59
2023-05-15T21:27:23.451Z,99528.88
2023-05-15T21:29:53.726Z,99534.03
2023-05-15T21:32:25.129Z,99522.03
2023-05-15T21:34:53.944Z,99525.50
2023-05-15T21:37:20.611Z,99527.28
2023-05-15T21:39:49.418Z,99529.13
2023-05-15T21:42:16.039Z,99529.81
2023-05-15T21:44:44.978Z,99527.19
2023-05-15T21:47:11.403Z,99530.78
2023-05-15T21:49:43.399Z,99529.94
2023-05-15T21:52:09.969Z,99531.66
2023-05-15T21:54:38.888Z,99542.03
2023-05-15T21:57:05.730Z,99542.94
2023-05-15T21:59:37.065Z,99543.09
2023-05-15T22:02:09.200Z,99554.38
2023-05-15T22:04:35.978Z,99557.88
2023-05-15T22:07:07.517Z,99565.63
2023-05-15T22:09:36.432Z,99562.09
2023-05-15T22:12:05.623Z,99571.59
2023-05-15T22:14:35.112Z,99569.78
2023-05-15T22:17:06.871Z,99575.75
2023-05-15T22:19:34.218Z,99581.03
2023-05-15T22:22:02.275Z,99592.19
2023-05-15T22:24:33.969Z,99586.31
2023-05-15T22:27:03.097Z,99588.00
2023-05-15T22:29:31.869Z,99589.66
2023-05-15T22:31:58.452Z,99595.59
2023-05-15T22:34:29.006Z,99582.66
2023-05-15T22:36:56.738Z,99587.16
2023-05-15T22:39:25.623Z,99582.84
2023-05-15T22:41:52.322Z,99591.28
2023-05-15T22:44:18.910Z,99577.53
2023-05-15T22:46:46.312Z,99568.97
2023-05-15T22:49:19.297Z,99570.56
2023-05-15T22:51:46.578Z,99559.34
2023-05-15T22:54:15.626Z,99570.50
2023-05-15T22:56:43.129Z,99567.00
2023-05-15T22:59:10.536Z,99563.84
2023-05-15T23:01:39.781Z,99547.47
2023-05-15T23:04:09.035Z,99549.38
2023-05-15T23:06:35.782Z,99547.50
2023-05-15T23:09:02.456Z,99550.06
2023-05-15T23:11:29.022Z,99549.22
2023-05-15T23:13:58.428Z,99550.91
2023-05-15T23:16:25.739Z,99543.13
2023-05-15T23:18:56.573Z,99545.59
2023-05-15T23:21:25.549Z,99537.00
2023-05-15T23:23:54.569Z,99542.16
2023-05-15T23:26:23.474Z,99542.16
2023-05-15T23:28:50.605Z,99541.31
2023-05-15T23:31:17.561Z,99537.94
2023-05-15T23:33:44.271Z,99537.91
2023-05-15T23:36:10.930Z,99535.34
2023-05-15T23:38:37.555Z,99540.59
2023-05-15T23:41:04.261Z,99528.38
2023-05-15T23:43:32.212Z,99517.31
2023-05-15T23:46:03.726Z,99528.59
2023-05-15T23:48:33.653Z,99520.75
2023-05-15T23:51:00.476Z,99523.25
2023-05-15T23:53:27.026Z,99524.09
2023-05-15T23:55:58.149Z,99517.22
2023-05-15T23:58:27.233Z,99518.13
